Martinsdale, Montana
Current Conditions -  °F | °C
As of 11:53 PM on Wednesday 17 Dec 2014 (Local Time) from KLVM Reporting Station
Clear Clear  
Wind Chill: 13°   Ceiling: Unl
Heat Index: 24°   Visibility: 10mi
Dew Point: 16°   Wind: 12mph
Humidity: 71%   Direction: 320°NW
Pressure: 29.94"   Gusts: 28mph
Location:  46.46°N, 110.31°W
Report Text: KLVM 180653Z AUTO 32010G24KT 10SM CLR M04/M09 A2994 RMK AO2 PK WND 27032/0621 SLP171 T10441089 400441067
Loading
Personal Weather Stations






























Interactive Weather Map New forecast layout! Learn more

10-Day Weather Forecast

Advertisements
Track Severe Weather on mobile